sensor_id;sensor_type;location;lat;lon;timestamp;pressure;altitude;pressure_sealevel;temperature
61189;BMP280;47054;39.716;2.904;2023-04-16T00:00:34;100409.38;;;23.04
61189;BMP280;47054;39.716;2.904;2023-04-16T00:03:19;100410.50;;;23.07
61189;BMP280;47054;39.716;2.904;2023-04-16T00:06:03;100416.25;;;23.09
61189;BMP280;47054;39.716;2.904;2023-04-16T00:08:48;100417.03;;;23.09
61189;BMP280;47054;39.716;2.904;2023-04-16T00:11:34;100417.81;;;23.10
61189;BMP280;47054;39.716;2.904;2023-04-16T00:14:19;100415.88;;;23.10
61189;BMP280;47054;39.716;2.904;2023-04-16T00:17:03;100418.56;;;23.10
61189;BMP280;47054;39.716;2.904;2023-04-16T00:19:48;100422.84;;;23.11
61189;BMP280;47054;39.716;2.904;2023-04-16T00:22:32;100414.72;;;23.11
61189;BMP280;47054;39.716;2.904;2023-04-16T00:25:17;100411.63;;;23.09
61189;BMP280;47054;39.716;2.904;2023-04-16T00:28:01;100418.91;;;23.12
61189;BMP280;47054;39.716;2.904;2023-04-16T00:30:46;100417.00;;;23.13
61189;BMP280;47054;39.716;2.904;2023-04-16T00:33:30;100407.72;;;23.14
61189;BMP280;47054;39.716;2.904;2023-04-16T00:36:14;100402.31;;;23.14
61189;BMP280;47054;39.716;2.904;2023-04-16T00:38:59;100395.75;;;23.15
61189;BMP280;47054;39.716;2.904;2023-04-16T00:41:44;100392.28;;;23.14
61189;BMP280;47054;39.716;2.904;2023-04-16T00:44:29;100389.56;;;23.14
61189;BMP280;47054;39.716;2.904;2023-04-16T00:47:15;100385.69;;;23.15
61189;BMP280;47054;39.716;2.904;2023-04-16T00:50:01;100384.50;;;23.16
61189;BMP280;47054;39.716;2.904;2023-04-16T00:52:49;100389.91;;;23.16
61189;BMP280;47054;39.716;2.904;2023-04-16T00:55:34;100386.41;;;23.16
61189;BMP280;47054;39.716;2.904;2023-04-16T00:58:19;100387.19;;;23.16
61189;BMP280;47054;39.716;2.904;2023-04-16T01:01:05;100382.22;;;23.15
61189;BMP280;47054;39.716;2.904;2023-04-16T01:03:50;100381.78;;;23.16
61189;BMP280;47054;39.716;2.904;2023-04-16T01:06:34;100372.19;;;23.15
61189;BMP280;47054;39.716;2.904;2023-04-16T01:09:19;100377.16;;;23.17
61189;BMP280;47054;39.716;2.904;2023-04-16T01:12:04;100370.97;;;23.16
61189;BMP280;47054;39.716;2.904;2023-04-16T01:14:48;100368.25;;;23.16
61189;BMP280;47054;39.716;2.904;2023-04-16T01:17:33;100370.59;;;23.18
61189;BMP280;47054;39.716;2.904;2023-04-16T01:20:18;100358.22;;;23.17
61189;BMP280;47054;39.716;2.904;2023-04-16T01:23:02;100364.41;;;23.17
61189;BMP280;47054;39.716;2.904;2023-04-16T01:25:47;100357.44;;;23.16
61189;BMP280;47054;39.716;2.904;2023-04-16T01:28:32;100352.81;;;23.17
61189;BMP280;47054;39.716;2.904;2023-04-16T01:31:16;100358.22;;;23.17
61189;BMP280;47054;39.716;2.904;2023-04-16T01:34:22;100350.09;;;23.17
61189;BMP280;47054;39.716;2.904;2023-04-16T01:37:06;100359.38;;;23.16
61189;BMP280;47054;39.716;2.904;2023-04-16T01:39:51;100355.19;;;23.15
61189;BMP280;47054;39.716;2.904;2023-04-16T01:42:36;100356.00;;;23.12
61189;BMP280;47054;39.716;2.904;2023-04-16T01:45:21;100362.06;;;23.16
61189;BMP280;47054;39.716;2.904;2023-04-16T01:48:07;100359.38;;;23.16
61189;BMP280;47054;39.716;2.904;2023-04-16T01:50:52;100360.94;;;23.17
61189;BMP280;47054;39.716;2.904;2023-04-16T01:53:37;100364.06;;;23.15
61189;BMP280;47054;39.716;2.904;2023-04-16T01:56:22;100366.78;;;23.15
61189;BMP280;47054;39.716;2.904;2023-04-16T01:59:06;100377.59;;;23.15
61189;BMP280;47054;39.716;2.904;2023-04-16T02:01:57;100374.88;;;23.15
61189;BMP280;47054;39.716;2.904;2023-04-16T02:04:44;100366.00;;;23.15
61189;BMP280;47054;39.716;2.904;2023-04-16T02:07:29;100380.66;;;23.14
61189;BMP280;47054;39.716;2.904;2023-04-16T02:10:15;100391.13;;;23.15
61189;BMP280;47054;39.716;2.904;2023-04-16T02:12:59;100391.50;;;23.14
61189;BMP280;47054;39.716;2.904;2023-04-16T02:15:46;100393.03;;;23.15
61189;BMP280;47054;39.716;2.904;2023-04-16T02:18:31;100389.56;;;23.14
61189;BMP280;47054;39.716;2.904;2023-04-16T02:21:16;100394.19;;;23.14
61189;BMP280;47054;39.716;2.904;2023-04-16T02:24:01;100393.03;;;23.15
61189;BMP280;47054;39.716;2.904;2023-04-16T02:26:48;100393.03;;;23.15
61189;BMP280;47054;39.716;2.904;2023-04-16T02:29:35;100394.97;;;23.14
61189;BMP280;47054;39.716;2.904;2023-04-16T02:32:29;100386.09;;;23.14
61189;BMP280;47054;39.716;2.904;2023-04-16T02:35:14;100382.59;;;23.13
61189;BMP280;47054;39.716;2.904;2023-04-16T02:37:59;100387.25;;;23.13
61189;BMP280;47054;39.716;2.904;2023-04-16T02:40:44;100394.19;;;23.14
61189;BMP280;47054;39.716;2.904;2023-04-16T02:43:28;100364.19;;;23.01
61189;BMP280;47054;39.716;2.904;2023-04-16T02:46:13;100386.47;;;23.12
61189;BMP280;47054;39.716;2.904;2023-04-16T02:48:58;100383.03;;;23.12
61189;BMP280;47054;39.716;2.904;2023-04-16T02:51:43;100376.41;;;23.13
61189;BMP280;47054;39.716;2.904;2023-04-16T02:54:28;100372.94;;;23.12
61189;BMP280;47054;39.716;2.904;2023-04-16T02:57:13;100384.53;;;23.13
61189;BMP280;47054;39.716;2.904;2023-04-16T02:59:57;100379.13;;;23.13
61189;BMP280;47054;39.716;2.904;2023-04-16T03:02:42;100380.34;;;23.12
61189;BMP280;47054;39.716;2.904;2023-04-16T03:05:27;100382.59;;;23.13
61189;BMP280;47054;39.716;2.904;2023-04-16T03:08:11;100374.16;;;23.11
61189;BMP280;47054;39.716;2.904;2023-04-16T03:10:55;100382.25;;;23.11
61189;BMP280;47054;39.716;2.904;2023-04-16T03:13:40;100377.63;;;23.12
61189;BMP280;47054;39.716;2.904;2023-04-16T03:16:24;100373.41;;;23.07
61189;BMP280;47054;39.716;2.904;2023-04-16T03:19:09;100388.44;;;23.12
61189;BMP280;47054;39.716;2.904;2023-04-16T03:21:54;100386.47;;;23.12
61189;BMP280;47054;39.716;2.904;2023-04-16T03:24:39;100386.50;;;23.09
61189;BMP280;47054;39.716;2.904;2023-04-16T03:27:25;100389.16;;;23.12
61189;BMP280;47054;39.716;2.904;2023-04-16T03:30:10;100391.16;;;23.12
61189;BMP280;47054;39.716;2.904;2023-04-16T03:32:55;100383.75;;;23.12
61189;BMP280;47054;39.716;2.904;2023-04-16T03:35:40;100367.56;;;23.09
61189;BMP280;47054;39.716;2.904;2023-04-16T03:38:25;100385.75;;;23.12
61189;BMP280;47054;39.716;2.904;2023-04-16T03:41:11;100372.25;;;23.08
61189;BMP280;47054;39.716;2.904;2023-04-16T03:43:56;100380.72;;;23.10
61189;BMP280;47054;39.716;2.904;2023-04-16T03:46:40;100384.97;;;23.11
61189;BMP280;47054;39.716;2.904;2023-04-16T03:49:25;100386.13;;;23.10
61189;BMP280;47054;39.716;2.904;2023-04-16T03:52:10;100382.31;;;23.08
61189;BMP280;47054;39.716;2.904;2023-04-16T03:54:55;100387.69;;;23.11
61189;BMP280;47054;39.716;2.904;2023-04-16T03:57:45;100393.47;;;23.10
61189;BMP280;47054;39.716;2.904;2023-04-16T04:00:33;100395.38;;;23.09
61189;BMP280;47054;39.716;2.904;2023-04-16T04:03:24;100388.50;;;23.08
61189;BMP280;47054;39.716;2.904;2023-04-16T04:06:11;100385.03;;;23.04
61189;BMP280;47054;39.716;2.904;2023-04-16T04:08:57;100394.63;;;23.09
61189;BMP280;47054;39.716;2.904;2023-04-16T04:11:42;100390.03;;;23.06
61189;BMP280;47054;39.716;2.904;2023-04-16T04:14:26;100383.09;;;23.08
61189;BMP280;47054;39.716;2.904;2023-04-16T04:17:11;100390.41;;;23.08
61189;BMP280;47054;39.716;2.904;2023-04-16T04:19:55;100392.34;;;23.07
61189;BMP280;47054;39.716;2.904;2023-04-16T04:22:40;100391.56;;;23.07
61189;BMP280;47054;39.716;2.904;2023-04-16T04:25:24;100400.84;;;23.06
61189;BMP280;47054;39.716;2.904;2023-04-16T04:28:09;100392.38;;;23.04
61189;BMP280;47054;39.716;2.904;2023-04-16T04:30:54;100390.84;;;23.03
61189;BMP280;47054;39.716;2.904;2023-04-16T04:33:38;100402.38;;;23.07
61189;BMP280;47054;39.716;2.904;2023-04-16T04:36:24;100405.50;;;23.05
61189;BMP280;47054;39.716;2.904;2023-04-16T04:39:10;100404.31;;;23.06
61189;BMP280;47054;39.716;2.904;2023-04-16T04:41:56;100398.91;;;23.06
61189;BMP280;47054;39.716;2.904;2023-04-16T04:44:41;100400.84;;;23.06
61189;BMP280;47054;39.716;2.904;2023-04-16T04:47:26;100390.50;;;23.01
61189;BMP280;47054;39.716;2.904;2023-04-16T04:50:11;100385.81;;;23.01
61189;BMP280;47054;39.716;2.904;2023-04-16T04:52:56;100383.88;;;23.05
61189;BMP280;47054;39.716;2.904;2023-04-16T04:55:41;100402.03;;;23.05
61189;BMP280;47054;39.716;2.904;2023-04-16T04:58:26;100397.78;;;23.04
61189;BMP280;47054;39.716;2.904;2023-04-16T05:01:11;100395.88;;;23.04
61189;BMP280;47054;39.716;2.904;2023-04-16T05:03:56;100403.19;;;23.04
61189;BMP280;47054;39.716;2.904;2023-04-16T05:06:41;100400.50;;;23.04
61189;BMP280;47054;39.716;2.904;2023-04-16T05:09:26;100400.50;;;23.04
61189;BMP280;47054;39.716;2.904;2023-04-16T05:12:10;100407.06;;;23.03
61189;BMP280;47054;39.716;2.904;2023-04-16T05:14:55;100399.72;;;23.03
61189;BMP280;47054;39.716;2.904;2023-04-16T05:17:39;100412.47;;;23.03
61189;BMP280;47054;39.716;2.904;2023-04-16T05:20:24;100409.00;;;23.02
61189;BMP280;47054;39.716;2.904;2023-04-16T05:23:08;100402.47;;;23.00
61189;BMP280;47054;39.716;2.904;2023-04-16T05:25:53;100395.47;;;23.02
61189;BMP280;47054;39.716;2.904;2023-04-16T05:28:37;100406.28;;;23.02
61189;BMP280;47054;39.716;2.904;2023-04-16T05:31:22;100393.56;;;22.99
61189;BMP280;47054;39.716;2.904;2023-04-16T05:34:07;100403.56;;;23.02
61189;BMP280;47054;39.716;2.904;2023-04-16T05:36:51;100406.72;;;23.01
61189;BMP280;47054;39.716;2.904;2023-04-16T05:39:36;100395.13;;;23.00
61189;BMP280;47054;39.716;2.904;2023-04-16T05:42:20;100404.00;;;23.01
61189;BMP280;47054;39.716;2.904;2023-04-16T05:45:05;100403.25;;;23.00
61189;BMP280;47054;39.716;2.904;2023-04-16T05:47:50;100410.56;;;23.00
61189;BMP280;47054;39.716;2.904;2023-04-16T05:50:35;100418.69;;;23.00
61189;BMP280;47054;39.716;2.904;2023-04-16T05:53:20;100415.97;;;23.00
61189;BMP280;47054;39.716;2.904;2023-04-16T05:56:06;100433.38;;;22.99
61189;BMP280;47054;39.716;2.904;2023-04-16T05:58:50;100424.09;;;23.00
61189;BMP280;47054;39.716;2.904;2023-04-16T06:01:35;100426.81;;;23.00
61189;BMP280;47054;39.716;2.904;2023-04-16T06:04:19;100423.31;;;22.99
61189;BMP280;47054;39.716;2.904;2023-04-16T06:07:03;100419.47;;;23.00
61189;BMP280;47054;39.716;2.904;2023-04-16T06:09:48;100422.53;;;22.99
61189;BMP280;47054;39.716;2.904;2023-04-16T06:12:33;100420.63;;;22.99
61189;BMP280;47054;39.716;2.904;2023-04-16T06:15:17;100417.91;;;22.99
61189;BMP280;47054;39.716;2.904;2023-04-16T06:18:02;100414.09;;;22.97
61189;BMP280;47054;39.716;2.904;2023-04-16T06:20:46;100426.03;;;22.99
61189;BMP280;47054;39.716;2.904;2023-04-16T06:23:31;100422.97;;;22.97
61189;BMP280;47054;39.716;2.904;2023-04-16T06:26:15;100436.84;;;22.99
61189;BMP280;47054;39.716;2.904;2023-04-16T06:29:00;100436.06;;;22.99
61189;BMP280;47054;39.716;2.904;2023-04-16T06:31:44;100428.72;;;22.99
61189;BMP280;47054;39.716;2.904;2023-04-16T06:34:30;100428.72;;;22.99
61189;BMP280;47054;39.716;2.904;2023-04-16T06:37:15;100441.09;;;23.00
61189;BMP280;47054;39.716;2.904;2023-04-16T06:39:59;100441.47;;;22.99
61189;BMP280;47054;39.716;2.904;2023-04-16T06:42:45;100443.81;;;23.00
61189;BMP280;47054;39.716;2.904;2023-04-16T06:45:30;100446.50;;;23.00
61189;BMP280;47054;39.716;2.904;2023-04-16T06:48:14;100458.09;;;23.01
61189;BMP280;47054;39.716;2.904;2023-04-16T06:50:59;100450.75;;;23.01
61189;BMP280;47054;39.716;2.904;2023-04-16T06:53:44;100451.13;;;23.00
61189;BMP280;47054;39.716;2.904;2023-04-16T06:56:29;100458.09;;;23.01
61189;BMP280;47054;39.716;2.904;2023-04-16T06:59:13;100443.44;;;22.98
61189;BMP280;47054;39.716;2.904;2023-04-16T07:01:58;100443.41;;;23.02
61189;BMP280;47054;39.716;2.904;2023-04-16T07:04:42;100453.44;;;23.01
61189;BMP280;47054;39.716;2.904;2023-04-16T07:07:26;100449.56;;;23.02
61189;BMP280;47054;39.716;2.904;2023-04-16T07:10:11;100445.69;;;23.03
61189;BMP280;47054;39.716;2.904;2023-04-16T07:12:55;100455.75;;;23.03
61189;BMP280;47054;39.716;2.904;2023-04-16T07:15:40;100450.34;;;23.03
61189;BMP280;47054;39.716;2.904;2023-04-16T07:18:25;100446.09;;;23.02
61189;BMP280;47054;39.716;2.904;2023-04-16T07:21:09;100446.47;;;23.04
61189;BMP280;47054;39.716;2.904;2023-04-16T07:23:54;100444.53;;;23.04
61189;BMP280;47054;39.716;2.904;2023-04-16T07:26:39;100447.25;;;23.04
61189;BMP280;47054;39.716;2.904;2023-04-16T07:29:23;100447.25;;;23.04
61189;BMP280;47054;39.716;2.904;2023-04-16T07:32:08;100450.69;;;23.05
61189;BMP280;47054;39.716;2.904;2023-04-16T07:34:52;100460.34;;;23.06
61189;BMP280;47054;39.716;2.904;2023-04-16T07:37:37;100461.53;;;23.05
61189;BMP280;47054;39.716;2.904;2023-04-16T08:03:44;100467.97;;;23.55
61189;BMP280;47054;39.716;2.904;2023-04-16T08:06:29;100465.34;;;23.48
61189;BMP280;47054;39.716;2.904;2023-04-16T08:09:14;100464.28;;;23.38
61189;BMP280;47054;39.716;2.904;2023-04-16T08:12:02;100456.56;;;23.37
61189;BMP280;47054;39.716;2.904;2023-04-16T08:14:55;100462.34;;;23.39
61189;BMP280;47054;39.716;2.904;2023-04-16T08:17:41;100460.06;;;23.34
61189;BMP280;47054;39.716;2.904;2023-04-16T08:20:26;100464.34;;;23.31
61189;BMP280;47054;39.716;2.904;2023-04-16T08:26:13;100475.59;;;23.26
61189;BMP280;47054;39.716;2.904;2023-04-16T08:28:58;100483.34;;;23.24
61189;BMP280;47054;39.716;2.904;2023-04-16T08:31:42;100494.59;;;23.23
61189;BMP280;47054;39.716;2.904;2023-04-16T08:34:27;100496.53;;;23.22
61189;BMP280;47054;39.716;2.904;2023-04-16T08:37:11;100498.84;;;23.20
61189;BMP280;47054;39.716;2.904;2023-04-16T08:39:56;100503.47;;;23.20
61189;BMP280;47054;39.716;2.904;2023-04-16T08:42:53;100502.34;;;23.21
61189;BMP280;47054;39.716;2.904;2023-04-16T08:45:40;100502.00;;;23.19
61189;BMP280;47054;39.716;2.904;2023-04-16T08:48:32;100505.44;;;23.19
61189;BMP280;47054;39.716;2.904;2023-04-16T08:51:18;100514.75;;;23.18
61189;BMP280;47054;39.716;2.904;2023-04-16T08:54:11;100501.63;;;23.13
61189;BMP280;47054;39.716;2.904;2023-04-16T08:56:57;100512.81;;;23.19
61189;BMP280;47054;39.716;2.904;2023-04-16T08:59:45;100521.31;;;23.17
61189;BMP280;47054;39.716;2.904;2023-04-16T09:02:31;100526.72;;;23.17
61189;BMP280;47054;39.716;2.904;2023-04-16T09:05:16;100520.16;;;23.18
61189;BMP280;47054;39.716;2.904;2023-04-16T09:08:01;100528.28;;;23.18
61189;BMP280;47054;39.716;2.904;2023-04-16T09:10:45;100518.59;;;23.17
61189;BMP280;47054;39.716;2.904;2023-04-16T09:13:31;100519.38;;;23.18
61189;BMP280;47054;39.716;2.904;2023-04-16T09:16:16;100513.97;;;23.18
61189;BMP280;47054;39.716;2.904;2023-04-16T09:19:00;100520.16;;;23.18
61189;BMP280;47054;39.716;2.904;2023-04-16T09:21:45;100517.44;;;23.18
61189;BMP280;47054;39.716;2.904;2023-04-16T09:24:30;100513.97;;;23.18
61189;BMP280;47054;39.716;2.904;2023-04-16T09:27:16;100507.41;;;23.19
61189;BMP280;47054;39.716;2.904;2023-04-16T09:30:00;100492.78;;;23.06
61189;BMP280;47054;39.716;2.904;2023-04-16T09:32:45;100511.25;;;23.18
61189;BMP280;47054;39.716;2.904;2023-04-16T09:35:46;100506.19;;;23.20
61189;BMP280;47054;39.716;2.904;2023-04-16T09:38:51;100515.50;;;23.19
61189;BMP280;47054;39.716;2.904;2023-04-16T09:41:36;100510.84;;;23.16
61189;BMP280;47054;39.716;2.904;2023-04-16T09:44:34;100501.22;;;23.18
61189;BMP280;47054;39.716;2.904;2023-04-16T09:47:19;100507.00;;;23.17
61189;BMP280;47054;39.716;2.904;2023-04-16T09:50:04;100502.38;;;23.17
61189;BMP280;47054;39.716;2.904;2023-04-16T09:52:49;100503.19;;;23.14
61189;BMP280;47054;39.716;2.904;2023-04-16T09:55:34;100502.38;;;23.17
61189;BMP280;47054;39.716;2.904;2023-04-16T09:58:19;100505.06;;;23.17
61189;BMP280;47054;39.716;2.904;2023-04-16T10:01:06;100490.00;;;23.16
61189;BMP280;47054;39.716;2.904;2023-04-16T10:03:53;100499.66;;;23.17
61189;BMP280;47054;39.716;2.904;2023-04-16T10:06:39;100495.03;;;23.18
61189;BMP280;47054;39.716;2.904;2023-04-16T10:09:23;100497.72;;;23.18
61189;BMP280;47054;39.716;2.904;2023-04-16T10:12:08;100494.25;;;23.17
61189;BMP280;47054;39.716;2.904;2023-04-16T10:14:53;100494.63;;;23.19
61189;BMP280;47054;39.716;2.904;2023-04-16T10:17:38;100488.84;;;23.17
61189;BMP280;47054;39.716;2.904;2023-04-16T10:20:22;100484.97;;;23.18
61189;BMP280;47054;39.716;2.904;2023-04-16T10:23:07;100480.34;;;23.19
61189;BMP280;47054;39.716;2.904;2023-04-16T10:25:53;100474.94;;;23.19
61189;BMP280;47054;39.716;2.904;2023-04-16T10:28:39;100476.88;;;23.18
61189;BMP280;47054;39.716;2.904;2023-04-16T10:31:24;100472.22;;;23.19
61189;BMP280;47054;39.716;2.904;2023-04-16T10:34:10;100474.94;;;23.19
61189;BMP280;47054;39.716;2.904;2023-04-16T10:36:55;100463.34;;;23.18
61189;BMP280;47054;39.716;2.904;2023-04-16T10:39:39;100457.94;;;23.18
61189;BMP280;47054;39.716;2.904;2023-04-16T10:42:24;100458.72;;;23.19
61189;BMP280;47054;39.716;2.904;2023-04-16T10:45:10;100457.50;;;23.20
61189;BMP280;47054;39.716;2.904;2023-04-16T10:47:55;100443.22;;;23.16
61189;BMP280;47054;39.716;2.904;2023-04-16T10:50:40;100433.69;;;23.08
61189;BMP280;47054;39.716;2.904;2023-04-16T10:53:26;100440.50;;;23.19
61189;BMP280;47054;39.716;2.904;2023-04-16T10:56:11;100438.59;;;23.16
61189;BMP280;47054;39.716;2.904;2023-04-16T10:58:59;100435.50;;;23.18
61189;BMP280;47054;39.716;2.904;2023-04-16T11:01:44;100428.94;;;23.19
61189;BMP280;47054;39.716;2.904;2023-04-16T11:07:20;100428.19;;;23.18
61189;BMP280;47054;39.716;2.904;2023-04-16T11:10:05;100421.22;;;23.17
61189;BMP280;47054;39.716;2.904;2023-04-16T11:12:51;100425.47;;;23.18
61189;BMP280;47054;39.716;2.904;2023-04-16T11:15:37;100421.22;;;23.17
61189;BMP280;47054;39.716;2.904;2023-04-16T11:18:21;100406.53;;;23.18
61189;BMP280;47054;39.716;2.904;2023-04-16T11:21:10;100399.94;;;23.19
61189;BMP280;47054;39.716;2.904;2023-04-16T11:23:56;100404.59;;;23.19
61189;BMP280;47054;39.716;2.904;2023-04-16T11:26:41;100402.66;;;23.19
61189;BMP280;47054;39.716;2.904;2023-04-16T11:29:26;100393.00;;;23.18
61189;BMP280;47054;39.716;2.904;2023-04-16T11:32:19;100392.19;;;23.21
61189;BMP280;47054;39.716;2.904;2023-04-16T11:35:14;100386.41;;;23.19
61189;BMP280;47054;39.716;2.904;2023-04-16T11:37:59;100391.06;;;23.19
61189;BMP280;47054;39.716;2.904;2023-04-16T11:40:43;100370.34;;;23.05
61189;BMP280;47054;39.716;2.904;2023-04-16T11:43:28;100382.19;;;23.18
61189;BMP280;47054;39.716;2.904;2023-04-16T11:46:13;100376.78;;;23.18
61189;BMP280;47054;39.716;2.904;2023-04-16T11:48:58;100376.78;;;23.18
61189;BMP280;47054;39.716;2.904;2023-04-16T11:51:44;100364.78;;;23.19
61189;BMP280;47054;39.716;2.904;2023-04-16T11:54:29;100364.41;;;23.17
61189;BMP280;47054;39.716;2.904;2023-04-16T11:57:28;100360.09;;;23.20
61189;BMP280;47054;39.716;2.904;2023-04-16T12:00:14;100357.84;;;23.18
61189;BMP280;47054;39.716;2.904;2023-04-16T12:02:59;100359.75;;;23.18
61189;BMP280;47054;39.716;2.904;2023-04-16T12:05:44;100364.03;;;23.19
61189;BMP280;47054;39.716;2.904;2023-04-16T12:08:29;100361.31;;;23.19
61189;BMP280;47054;39.716;2.904;2023-04-16T12:11:14;100370.19;;;23.19
61189;BMP280;47054;39.716;2.904;2023-04-16T12:14:09;100361.69;;;23.17
61189;BMP280;47054;39.716;2.904;2023-04-16T12:16:54;100364.03;;;23.19
61189;BMP280;47054;39.716;2.904;2023-04-16T12:19:48;100358.19;;;23.20
61189;BMP280;47054;39.716;2.904;2023-04-16T12:22:35;100360.53;;;23.18
61189;BMP280;47054;39.716;2.904;2023-04-16T12:25:23;100366.28;;;23.20
61189;BMP280;47054;39.716;2.904;2023-04-16T12:28:07;100368.22;;;23.20
61189;BMP280;47054;39.716;2.904;2023-04-16T12:30:52;100366.72;;;23.19
61189;BMP280;47054;39.716;2.904;2023-04-16T12:33:36;100353.94;;;23.19
61189;BMP280;47054;39.716;2.904;2023-04-16T12:36:21;100356.66;;;23.19
61189;BMP280;47054;39.716;2.904;2023-04-16T12:39:05;100355.13;;;23.18
61189;BMP280;47054;39.716;2.904;2023-04-16T12:41:50;100350.84;;;23.21
61189;BMP280;47054;39.716;2.904;2023-04-16T12:44:35;100350.06;;;23.20
61189;BMP280;47054;39.716;2.904;2023-04-16T12:47:20;100352.75;;;23.20
61189;BMP280;47054;39.716;2.904;2023-04-16T12:50:05;100359.72;;;23.21
61189;BMP280;47054;39.716;2.904;2023-04-16T12:52:50;100356.28;;;23.17
61189;BMP280;47054;39.716;2.904;2023-04-16T12:55:34;100353.53;;;23.21
61189;BMP280;47054;39.716;2.904;2023-04-16T12:58:19;100343.50;;;23.21
61189;BMP280;47054;39.716;2.904;2023-04-16T13:01:03;100351.63;;;23.21
61189;BMP280;47054;39.716;2.904;2023-04-16T13:03:48;100337.72;;;23.16
61189;BMP280;47054;39.716;2.904;2023-04-16T13:06:33;100352.38;;;23.22
61189;BMP280;47054;39.716;2.904;2023-04-16T13:09:17;100345.03;;;23.22
61189;BMP280;47054;39.716;2.904;2023-04-16T13:12:03;100342.34;;;23.22
61189;BMP280;47054;39.716;2.904;2023-04-16T13:14:48;100341.13;;;23.23
61189;BMP280;47054;39.716;2.904;2023-04-16T13:17:32;100339.97;;;23.24
61189;BMP280;47054;39.716;2.904;2023-04-16T13:20:17;100342.34;;;23.22
61189;BMP280;47054;39.716;2.904;2023-04-16T13:23:02;100334.97;;;23.23
61189;BMP280;47054;39.716;2.904;2023-04-16T13:25:47;100341.53;;;23.25
61189;BMP280;47054;39.716;2.904;2023-04-16T13:28:32;100334.28;;;23.19
61189;BMP280;47054;39.716;2.904;2023-04-16T13:31:16;100346.16;;;23.25
61189;BMP280;47054;39.716;2.904;2023-04-16T13:34:03;100353.13;;;23.26
61189;BMP280;47054;39.716;2.904;2023-04-16T13:36:48;100344.22;;;23.25
61189;BMP280;47054;39.716;2.904;2023-04-16T13:39:32;100341.09;;;23.27
61189;BMP280;47054;39.716;2.904;2023-04-16T13:42:16;100339.59;;;23.26
61189;BMP280;47054;39.716;2.904;2023-04-16T13:45:01;100342.63;;;23.28
61189;BMP280;47054;39.716;2.904;2023-04-16T13:47:47;100341.84;;;23.27
61189;BMP280;47054;39.716;2.904;2023-04-16T13:50:31;100343.03;;;23.26
61189;BMP280;47054;39.716;2.904;2023-04-16T13:53:16;100332.22;;;23.26
61189;BMP280;47054;39.716;2.904;2023-04-16T13:56:00;100329.50;;;23.26
61189;BMP280;47054;39.716;2.904;2023-04-16T13:58:47;100329.09;;;23.28
61189;BMP280;47054;39.716;2.904;2023-04-16T14:01:32;100321.75;;;23.28
61189;BMP280;47054;39.716;2.904;2023-04-16T14:04:16;100317.13;;;23.29
61189;BMP280;47054;39.716;2.904;2023-04-16T14:07:00;100317.16;;;23.25
61189;BMP280;47054;39.716;2.904;2023-04-16T14:09:45;100300.16;;;23.25
61189;BMP280;47054;39.716;2.904;2023-04-16T14:12:29;100314.41;;;23.29
61189;BMP280;47054;39.716;2.904;2023-04-16T14:15:15;100293.94;;;23.28
61189;BMP280;47054;39.716;2.904;2023-04-16T14:18:00;100298.19;;;23.29
61189;BMP280;47054;39.716;2.904;2023-04-16T14:20:46;100298.97;;;23.29
61189;BMP280;47054;39.716;2.904;2023-04-16T14:23:30;100299.34;;;23.28
61189;BMP280;47054;39.716;2.904;2023-04-16T14:26:15;100298.19;;;23.29
61189;BMP280;47054;39.716;2.904;2023-04-16T14:28:59;100305.53;;;23.28
61189;BMP280;47054;39.716;2.904;2023-04-16T14:31:44;100305.91;;;23.30
61189;BMP280;47054;39.716;2.904;2023-04-16T14:34:28;100301.66;;;23.29
61189;BMP280;47054;39.716;2.904;2023-04-16T14:37:15;100296.25;;;23.29
61189;BMP280;47054;39.716;2.904;2023-04-16T14:40:00;100306.63;;;23.31
61189;BMP280;47054;39.716;2.904;2023-04-16T14:42:45;100293.56;;;23.29
61189;BMP280;47054;39.716;2.904;2023-04-16T14:45:29;100296.25;;;23.29
61189;BMP280;47054;39.716;2.904;2023-04-16T14:48:15;100302.41;;;23.30
61189;BMP280;47054;39.716;2.904;2023-04-16T14:51:00;100303.22;;;23.27
61189;BMP280;47054;39.716;2.904;2023-04-16T14:53:44;100307.41;;;23.31
61189;BMP280;47054;39.716;2.904;2023-04-16T14:56:29;100312.81;;;23.31
61189;BMP280;47054;39.716;2.904;2023-04-16T14:59:13;100308.19;;;23.32
61189;BMP280;47054;39.716;2.904;2023-04-16T15:01:58;100306.25;;;23.32
61189;BMP280;47054;39.716;2.904;2023-04-16T15:04:42;100309.75;;;23.33
61189;BMP280;47054;39.716;2.904;2023-04-16T15:07:27;100309.75;;;23.33
61189;BMP280;47054;39.716;2.904;2023-04-16T15:10:11;100307.78;;;23.33
61189;BMP280;47054;39.716;2.904;2023-04-16T15:12:55;100308.56;;;23.34
61189;BMP280;47054;39.716;2.904;2023-04-16T15:15:40;100298.53;;;23.31
61189;BMP280;47054;39.716;2.904;2023-04-16T15:18:25;100301.19;;;23.34
61189;BMP280;47054;39.716;2.904;2023-04-16T15:21:09;100290.34;;;23.34
61189;BMP280;47054;39.716;2.904;2023-04-16T15:23:54;100298.47;;;23.34
61189;BMP280;47054;39.716;2.904;2023-04-16T15:26:39;100293.44;;;23.36
61189;BMP280;47054;39.716;2.904;2023-04-16T15:29:24;100290.72;;;23.36
61189;BMP280;47054;39.716;2.904;2023-04-16T15:32:08;100293.44;;;23.36
61189;BMP280;47054;39.716;2.904;2023-04-16T15:34:53;100283.38;;;23.37
61189;BMP280;47054;39.716;2.904;2023-04-16T15:37:37;100281.44;;;23.37
61189;BMP280;47054;39.716;2.904;2023-04-16T15:40:23;100264.16;;;23.28
61189;BMP280;47054;39.716;2.904;2023-04-16T15:43:08;100286.84;;;23.37
61189;BMP280;47054;39.716;2.904;2023-04-16T15:45:53;100275.63;;;23.39
61189;BMP280;47054;39.716;2.904;2023-04-16T15:48:37;100274.06;;;23.38
61189;BMP280;47054;39.716;2.904;2023-04-16T15:51:22;100269.84;;;23.37
61189;BMP280;47054;39.716;2.904;2023-04-16T15:54:06;100274.84;;;23.38
61189;BMP280;47054;39.716;2.904;2023-04-16T15:56:51;100275.63;;;23.39
61189;BMP280;47054;39.716;2.904;2023-04-16T15:59:36;100273.69;;;23.39
61189;BMP280;47054;39.716;2.904;2023-04-16T16:02:20;100279.84;;;23.40
61189;BMP280;47054;39.716;2.904;2023-04-16T16:05:05;100276.41;;;23.39
61189;BMP280;47054;39.716;2.904;2023-04-16T16:07:52;100276.72;;;23.41